createdAt,value
2018-03-19T00:02:18.317Z,93.61
2018-03-19T00:04:45.875Z,93.70
2018-03-19T00:07:13.434Z,94.12
2018-03-19T00:09:41.003Z,94.02
2018-03-19T00:12:08.628Z,93.54
2018-03-19T00:14:36.203Z,93.75
2018-03-19T00:17:03.824Z,93.73
2018-03-19T00:19:31.460Z,93.65
2018-03-19T00:21:59.033Z,93.55
2018-03-19T00:24:26.660Z,93.99
2018-03-19T00:26:54.234Z,93.83
2018-03-19T00:29:21.797Z,93.83
2018-03-19T00:31:49.440Z,93.95
2018-03-19T00:34:16.997Z,94.15
2018-03-19T00:36:44.640Z,94.03
2018-03-19T00:39:12.210Z,94.01
2018-03-19T00:41:39.907Z,93.93
2018-03-19T00:44:07.471Z,93.63
2018-03-19T00:46:35.034Z,93.26
2018-03-19T00:49:02.672Z,93.25
2018-03-19T00:51:30.243Z,93.29
2018-03-19T00:53:57.884Z,93.20
2018-03-19T00:56:25.454Z,93.33
2018-03-19T00:58:53.107Z,93.34
2018-03-19T01:01:20.685Z,93.35
2018-03-19T01:03:48.363Z,93.08
2018-03-19T01:06:15.928Z,92.97
2018-03-19T01:08:43.490Z,93.03
2018-03-19T01:11:11.059Z,92.89
2018-03-19T01:13:38.645Z,92.92
2018-03-19T01:16:06.217Z,92.97
2018-03-19T01:18:33.779Z,92.81
2018-03-19T01:21:01.342Z,92.32
2018-03-19T01:23:28.966Z,92.70
2018-03-19T01:25:56.537Z,92.62
2018-03-19T01:28:24.158Z,92.88
2018-03-19T01:30:51.797Z,93.42
2018-03-19T01:33:19.419Z,93.57
2018-03-19T01:35:47.039Z,93.46
2018-03-19T01:38:14.613Z,93.38
2018-03-19T01:40:42.178Z,92.95
2018-03-19T01:43:09.754Z,92.56
2018-03-19T01:45:37.320Z,92.87
2018-03-19T01:48:04.892Z,93.19
2018-03-19T01:50:32.451Z,93.05
2018-03-19T01:53:00.036Z,93.03
2018-03-19T01:55:27.674Z,93.14
2018-03-19T01:57:55.271Z,92.74
2018-03-19T02:00:22.900Z,92.62
2018-03-19T02:02:50.518Z,92.43
2018-03-19T02:05:18.093Z,92.11
2018-03-19T02:07:45.657Z,92.18
2018-03-19T02:10:13.278Z,92.50
2018-03-19T02:12:40.857Z,92.54
2018-03-19T02:15:08.424Z,92.57
2018-03-19T02:17:36.001Z,92.49
2018-03-19T02:20:03.659Z,91.87
2018-03-19T02:22:31.227Z,91.78
2018-03-19T02:24:58.889Z,91.35
2018-03-19T02:27:26.579Z,91.01
2018-03-19T02:29:54.202Z,91.41
2018-03-19T02:32:21.780Z,90.53
2018-03-19T02:34:49.360Z,91.00
2018-03-19T02:37:17.001Z,91.15
2018-03-19T02:39:44.585Z,91.19
2018-03-19T02:42:12.150Z,90.89
2018-03-19T02:44:39.741Z,91.11
2018-03-19T02:47:07.307Z,91.14
2018-03-19T02:49:34.967Z,90.58
2018-03-19T02:52:02.538Z,91.29
2018-03-19T02:54:30.120Z,91.03
2018-03-19T02:56:57.696Z,91.00
2018-03-19T02:59:25.324Z,91.33
2018-03-19T03:01:52.920Z,91.23
2018-03-19T03:04:20.493Z,91.18
2018-03-19T03:06:48.070Z,90.91
2018-03-19T03:09:15.648Z,91.00
2018-03-19T03:11:43.281Z,91.21
2018-03-19T03:14:10.856Z,91.29
2018-03-19T03:16:38.442Z,91.37
2018-03-19T03:19:06.019Z,90.26
2018-03-19T03:21:33.642Z,90.28
2018-03-19T03:24:01.283Z,90.19
2018-03-19T03:26:28.854Z,90.36
2018-03-19T03:28:56.494Z,90.75
2018-03-19T03:31:24.057Z,90.96
2018-03-19T03:33:51.710Z,90.51
2018-03-19T03:36:19.289Z,90.69
2018-03-19T03:38:46.858Z,90.38
2018-03-19T03:41:14.433Z,90.33
2018-03-19T03:43:42.002Z,90.07
2018-03-19T03:46:09.615Z,90.34
2018-03-19T03:48:37.220Z,90.46
2018-03-19T03:51:04.809Z,90.59
2018-03-19T03:53:32.377Z,90.60
2018-03-19T03:56:00.003Z,90.49
2018-03-19T03:58:27.572Z,91.11
2018-03-19T04:00:55.142Z,90.60
2018-03-19T04:03:22.776Z,90.71
2018-03-19T04:05:50.348Z,90.35
2018-03-19T04:08:17.984Z,90.32
2018-03-19T04:10:45.551Z,91.17
2018-03-19T04:13:13.199Z,90.63
2018-03-19T04:15:40.773Z,90.37
2018-03-19T04:18:08.390Z,90.09
2018-03-19T04:20:35.971Z,89.69
2018-03-19T04:23:03.604Z,89.13
2018-03-19T04:25:31.174Z,89.51
2018-03-19T04:27:58.795Z,89.03
2018-03-19T04:30:26.432Z,89.23
2018-03-19T04:32:53.997Z,89.47
2018-03-19T04:35:21.648Z,89.24
2018-03-19T04:37:49.231Z,89.05
2018-03-19T04:40:16.865Z,89.84
2018-03-19T04:42:44.444Z,89.79
2018-03-19T04:45:12.010Z,89.13
2018-03-19T04:47:39.582Z,88.88
2018-03-19T04:50:07.148Z,88.92
2018-03-19T04:52:34.728Z,89.06
2018-03-19T04:55:02.311Z,89.55
2018-03-19T04:57:29.879Z,89.64
2018-03-19T04:59:57.440Z,89.65
2018-03-19T05:02:25.051Z,89.51
2018-03-19T05:04:52.674Z,89.18
2018-03-19T05:07:20.238Z,89.57
2018-03-19T05:09:47.818Z,89.70
2018-03-19T05:12:15.384Z,89.94
2018-03-19T05:14:42.972Z,89.75
2018-03-19T05:17:10.608Z,89.55
2018-03-19T05:19:38.242Z,88.97
2018-03-19T05:22:05.809Z,89.34
2018-03-19T05:24:33.451Z,89.52
2018-03-19T05:27:01.020Z,89.91
2018-03-19T05:29:28.591Z,89.47
2018-03-19T05:31:56.206Z,89.49
2018-03-19T05:34:23.844Z,89.90
2018-03-19T05:36:51.480Z,89.44
2018-03-19T05:39:19.110Z,89.05
2018-03-19T05:41:46.680Z,88.46
2018-03-19T05:44:14.247Z,88.08
2018-03-19T05:46:41.873Z,87.58
2018-03-19T05:49:09.456Z,87.93
2018-03-19T05:51:37.089Z,87.63
2018-03-19T05:54:04.673Z,87.26
2018-03-19T05:56:32.238Z,87.74
2018-03-19T05:58:59.923Z,87.40
2018-03-19T06:01:27.492Z,86.99
2018-03-19T06:03:55.061Z,87.12
2018-03-19T06:06:23.026Z,87.72
2018-03-19T06:08:50.808Z,87.46
2018-03-19T06:11:18.370Z,88.01
2018-03-19T06:13:45.987Z,87.87
2018-03-19T06:16:13.562Z,88.24
2018-03-19T06:18:41.133Z,88.57
2018-03-19T06:21:08.702Z,87.62
2018-03-19T06:23:36.284Z,88.57
2018-03-19T06:26:03.899Z,89.40
2018-03-19T06:28:31.476Z,88.60
2018-03-19T06:30:59.103Z,87.88
2018-03-19T06:33:26.738Z,88.52
2018-03-19T06:35:54.342Z,88.60
2018-03-19T06:38:22.011Z,88.60
2018-03-19T06:40:49.574Z,88.33
2018-03-19T06:43:17.148Z,88.62
2018-03-19T06:45:44.791Z,89.18
2018-03-19T06:48:12.450Z,89.12
2018-03-19T06:50:40.028Z,89.37
2018-03-19T06:53:07.589Z,89.53
2018-03-19T06:55:35.299Z,89.58
2018-03-19T06:58:02.953Z,89.41
2018-03-19T07:00:30.520Z,89.52
2018-03-19T07:02:58.090Z,89.41
2018-03-19T07:05:25.655Z,88.55
2018-03-19T07:07:53.291Z,88.75
2018-03-19T07:10:22.584Z,89.33
2018-03-19T07:12:50.264Z,89.77
2018-03-19T07:15:17.823Z,88.77
2018-03-19T07:17:45.443Z,88.67
2018-03-19T07:20:13.018Z,88.79
2018-03-19T07:22:40.645Z,89.39
2018-03-19T07:25:08.275Z,89.67
2018-03-19T07:27:35.894Z,90.08
2018-03-19T07:30:03.480Z,90.30
2018-03-19T07:32:31.038Z,89.84
2018-03-19T07:34:58.598Z,89.95
2018-03-19T07:37:26.189Z,90.03
2018-03-19T07:39:53.759Z,89.37
2018-03-19T07:42:21.326Z,90.07
2018-03-19T07:44:48.887Z,90.03
2018-03-19T07:47:16.579Z,89.96
2018-03-19T07:49:44.230Z,89.87
2018-03-19T07:52:11.872Z,89.87
2018-03-19T07:54:39.446Z,89.90
2018-03-19T07:57:07.007Z,88.92
2018-03-19T07:59:34.578Z,88.56
2018-03-19T08:02:02.220Z,88.28
2018-03-19T08:04:29.804Z,88.35
2018-03-19T08:06:57.422Z,88.34
2018-03-19T08:09:25.071Z,88.95
2018-03-19T08:11:52.648Z,88.36
2018-03-19T08:14:20.215Z,88.05
2018-03-19T08:16:47.843Z,88.33
2018-03-19T08:19:15.402Z,88.89
2018-03-19T08:21:43.018Z,87.63
2018-03-19T08:24:10.639Z,88.20
2018-03-19T08:26:38.267Z,87.59
2018-03-19T08:29:05.838Z,88.62
2018-03-19T08:31:33.406Z,87.80
2018-03-19T08:34:00.996Z,87.43
2018-03-19T08:36:28.616Z,87.36
2018-03-19T08:38:56.246Z,88.15
2018-03-19T08:41:23.879Z,87.17
2018-03-19T08:43:51.540Z,87.36
2018-03-19T08:46:19.179Z,88.82
2018-03-19T08:48:46.784Z,88.33
2018-03-19T08:51:14.418Z,87.37
2018-03-19T08:53:41.982Z,87.19
2018-03-19T08:56:09.607Z,87.25
2018-03-19T08:58:37.216Z,87.62
2018-03-19T09:01:04.772Z,86.68
2018-03-19T09:03:32.402Z,87.30
2018-03-19T09:05:59.973Z,86.70
2018-03-19T09:08:27.660Z,87.06
2018-03-19T09:10:55.279Z,87.42
2018-03-19T09:13:22.842Z,87.26
2018-03-19T09:15:50.470Z,87.19
2018-03-19T09:18:18.047Z,87.75
2018-03-19T09:20:45.617Z,87.92
2018-03-19T09:23:13.189Z,87.44
2018-03-19T09:25:40.861Z,85.95
2018-03-19T09:28:08.439Z,85.78
2018-03-19T09:30:36.054Z,84.97
2018-03-19T09:33:03.673Z,85.26
2018-03-19T09:35:31.230Z,83.98
2018-03-19T09:37:58.876Z,85.19
2018-03-19T09:40:26.448Z,84.73
2018-03-19T09:42:54.015Z,84.40
2018-03-19T09:45:21.590Z,84.48
2018-03-19T09:47:49.158Z,84.02
2018-03-19T09:50:16.731Z,84.14
2018-03-19T09:52:44.292Z,84.51
2018-03-19T09:55:11.985Z,84.09
2018-03-19T09:57:39.550Z,84.70
2018-03-19T10:00:07.175Z,84.07
2018-03-19T10:02:34.807Z,83.54
2018-03-19T10:05:02.369Z,84.45
2018-03-19T10:07:29.981Z,84.50
2018-03-19T10:09:57.558Z,83.44
2018-03-19T10:12:25.246Z,82.63
2018-03-19T10:14:52.868Z,83.15
2018-03-19T10:17:20.434Z,83.57
2018-03-19T10:19:48.003Z,83.60
2018-03-19T10:22:15.627Z,82.65
2018-03-19T10:24:43.226Z,82.21
2018-03-19T10:27:10.796Z,82.63
2018-03-19T10:29:38.430Z,82.96
2018-03-19T10:32:06.068Z,83.26
2018-03-19T10:34:33.648Z,83.13
2018-03-19T10:37:01.283Z,81.84
2018-03-19T10:39:28.839Z,82.96
2018-03-19T10:41:56.415Z,84.26
2018-03-19T10:44:23.974Z,84.30
2018-03-19T10:46:51.541Z,83.24
2018-03-19T10:49:19.107Z,84.62
2018-03-19T10:51:46.724Z,84.35
2018-03-19T10:54:14.293Z,83.50
2018-03-19T10:56:41.861Z,82.71
2018-03-19T10:59:09.431Z,82.43
2018-03-19T11:01:42.521Z,83.21
2018-03-19T11:04:14.462Z,83.32
2018-03-19T11:06:47.563Z,82.92
2018-03-19T11:09:20.623Z,82.27
2018-03-19T11:15:46.311Z,82.16
2018-03-19T11:18:13.923Z,83.12
2018-03-19T11:20:41.572Z,82.54
2018-03-19T11:23:09.198Z,84.13
2018-03-19T11:25:36.880Z,83.32
2018-03-19T11:28:04.450Z,82.32
2018-03-19T11:30:32.014Z,83.17
2018-03-19T11:32:59.597Z,82.21
2018-03-19T11:35:27.166Z,80.79
2018-03-19T11:37:55.300Z,81.77
2018-03-19T11:40:22.881Z,81.18
2018-03-19T11:42:50.514Z,82.01
2018-03-19T11:45:18.105Z,83.07
2018-03-19T11:47:46.311Z,82.08
2018-03-19T11:50:14.746Z,82.25
2018-03-19T11:52:43.896Z,81.53
2018-03-19T11:55:11.486Z,82.88
2018-03-19T11:57:41.774Z,83.24
2018-03-19T12:00:10.217Z,81.93
2018-03-19T12:02:37.796Z,82.86
2018-03-19T12:05:05.386Z,81.14
2018-03-19T12:07:32.962Z,80.57
2018-03-19T12:10:00.546Z,80.93
2018-03-19T12:15:17.420Z,80.20
2018-03-19T12:17:45.055Z,80.26
2018-03-19T12:20:13.056Z,80.45
2018-03-19T12:22:40.702Z,80.04
2018-03-19T12:25:08.270Z,81.50
2018-03-19T12:27:35.860Z,82.36
2018-03-19T12:30:04.122Z,81.80
2018-03-19T12:32:31.698Z,80.93
2018-03-19T12:34:59.270Z,80.47
2018-03-19T12:37:26.843Z,82.00
2018-03-19T12:39:54.414Z,81.51
2018-03-19T12:42:22.988Z,80.67
2018-03-19T12:44:52.662Z,81.37
2018-03-19T12:47:20.259Z,82.84
2018-03-19T12:49:48.768Z,82.37
2018-03-19T12:52:16.342Z,82.26
2018-03-19T12:54:43.927Z,82.40
2018-03-19T12:57:11.534Z,81.09
2018-03-19T12:59:39.690Z,80.59
2018-03-19T13:02:09.240Z,80.31
2018-03-19T13:04:39.488Z,81.11
2018-03-19T13:07:07.100Z,79.75
2018-03-19T13:09:34.660Z,79.52
2018-03-19T13:12:02.808Z,79.99
2018-03-19T13:14:30.384Z,80.48
2018-03-19T13:16:57.947Z,82.04
2018-03-19T13:19:26.350Z,82.48
2018-03-19T13:21:54.009Z,82.97
2018-03-19T13:24:21.615Z,82.61
2018-03-19T13:26:49.177Z,82.57
2018-03-19T13:29:16.738Z,82.75
2018-03-19T13:31:44.363Z,82.69
2018-03-19T13:34:11.913Z,82.77
2018-03-19T13:36:39.482Z,81.93
2018-03-19T13:39:07.046Z,81.70
2018-03-19T13:41:34.651Z,81.10
2018-03-19T13:44:02.220Z,81.31
2018-03-19T13:46:29.814Z,81.09
2018-03-19T13:48:57.386Z,81.27
2018-03-19T13:51:24.956Z,81.28
2018-03-19T13:53:52.530Z,81.08
2018-03-19T13:56:20.094Z,80.87
2018-03-19T13:58:48.617Z,80.98
2018-03-19T14:01:16.220Z,81.14
2018-03-19T14:03:43.846Z,82.23
2018-03-19T14:06:11.412Z,81.54
2018-03-19T14:08:38.979Z,81.23
2018-03-19T14:11:06.551Z,81.09
2018-03-19T14:13:34.831Z,81.20
2018-03-19T14:16:02.399Z,81.18
2018-03-19T14:18:31.152Z,81.16
2018-03-19T14:20:58.734Z,81.35
2018-03-19T14:23:26.299Z,81.46
2018-03-19T14:25:53.898Z,81.43
2018-03-19T14:28:21.463Z,81.86
2018-03-19T14:30:49.035Z,81.66
2018-03-19T14:33:16.605Z,82.18
2018-03-19T14:35:44.173Z,82.35
2018-03-19T14:38:11.758Z,81.63
2018-03-19T14:40:39.322Z,82.00
2018-03-19T14:43:06.895Z,82.04
2018-03-19T14:45:34.471Z,81.26
2018-03-19T14:48:02.110Z,80.92
2018-03-19T14:50:29.773Z,80.66
2018-03-19T14:52:57.292Z,81.26
2018-03-19T14:55:24.862Z,81.25
2018-03-19T14:57:52.423Z,81.89
2018-03-19T15:00:20.018Z,81.27
2018-03-19T15:02:47.604Z,81.79
2018-03-19T15:05:15.174Z,82.17
2018-03-19T15:07:42.738Z,82.78
2018-03-19T15:10:10.341Z,82.73
2018-03-19T15:12:37.995Z,83.72
2018-03-19T15:15:05.557Z,83.48
2018-03-19T15:17:33.205Z,83.86
2018-03-19T15:20:00.768Z,83.98
2018-03-19T15:22:28.348Z,84.11
2018-03-19T15:24:55.911Z,84.19
2018-03-19T15:27:23.477Z,84.21
2018-03-19T15:29:51.049Z,84.77
2018-03-19T15:32:18.650Z,85.51
2018-03-19T15:34:46.222Z,86.18
2018-03-19T15:37:13.789Z,86.55
2018-03-19T15:39:41.442Z,86.33
2018-03-19T15:42:09.003Z,86.90
2018-03-19T15:44:36.578Z,87.20
2018-03-19T15:47:04.142Z,86.99
2018-03-19T15:49:31.710Z,87.06
2018-03-19T15:51:59.307Z,87.36
2018-03-19T15:54:26.922Z,87.16
2018-03-19T15:56:54.494Z,87.47
2018-03-19T15:59:22.073Z,87.47
2018-03-19T16:01:49.646Z,87.68
2018-03-19T16:04:17.223Z,87.90
2018-03-19T16:06:44.796Z,88.12
2018-03-19T16:09:12.357Z,88.46
2018-03-19T16:11:39.963Z,88.10
2018-03-19T16:14:07.543Z,88.28
2018-03-19T16:16:35.152Z,88.58
2018-03-19T16:19:02.727Z,88.76
2018-03-19T16:21:30.317Z,89.05
2018-03-19T16:23:57.897Z,88.96
2018-03-19T16:26:25.506Z,88.59
2018-03-19T16:28:53.089Z,88.74
2018-03-19T16:31:20.690Z,88.40
2018-03-19T16:33:48.265Z,88.58
2018-03-19T16:36:15.836Z,89.22
2018-03-19T16:38:43.452Z,89.70
2018-03-19T16:41:11.023Z,89.58
2018-03-19T16:43:38.581Z,89.34
2018-03-19T16:46:06.167Z,89.52
2018-03-19T16:48:33.729Z,89.72
2018-03-19T16:51:01.294Z,89.80
2018-03-19T16:53:28.858Z,89.93
2018-03-19T16:55:56.471Z,89.76
2018-03-19T16:58:24.052Z,89.74
2018-03-19T17:00:51.619Z,89.00
2018-03-19T17:03:19.188Z,89.35
2018-03-19T17:05:46.770Z,89.17
2018-03-19T17:08:14.346Z,89.63
2018-03-19T17:10:41.919Z,89.44
2018-03-19T17:13:09.528Z,89.24
2018-03-19T17:15:37.088Z,89.15
2018-03-19T17:18:04.664Z,89.13
2018-03-19T17:20:32.247Z,88.83
2018-03-19T17:22:59.814Z,88.99
2018-03-19T17:25:27.390Z,89.19
2018-03-19T17:27:54.964Z,89.39
2018-03-19T17:30:22.644Z,89.02
2018-03-19T17:32:50.199Z,88.67
2018-03-19T17:35:17.759Z,88.80
2018-03-19T17:37:45.329Z,89.18
2018-03-19T17:40:12.913Z,89.49
2018-03-19T17:42:40.496Z,89.56
2018-03-19T17:45:08.058Z,89.38
2018-03-19T17:47:35.639Z,89.07
2018-03-19T17:50:03.225Z,89.00
2018-03-19T17:52:31.719Z,88.78
2018-03-19T17:54:59.360Z,88.54
2018-03-19T17:57:26.991Z,88.70
2018-03-19T17:59:54.565Z,88.56
2018-03-19T18:02:22.210Z,88.63
2018-03-19T18:04:49.842Z,88.78
2018-03-19T18:07:17.402Z,89.10
2018-03-19T18:09:44.974Z,89.51
2018-03-19T18:12:12.546Z,89.59
2018-03-19T18:14:40.190Z,89.53
2018-03-19T18:17:07.778Z,89.72
2018-03-19T18:19:35.343Z,89.61
2018-03-19T18:22:02.959Z,89.35
2018-03-19T18:24:30.534Z,89.33
2018-03-19T18:26:58.110Z,89.57
2018-03-19T18:29:25.750Z,89.99
2018-03-19T18:31:53.344Z,90.28
2018-03-19T18:34:20.904Z,90.43
2018-03-19T18:36:48.584Z,90.16
2018-03-19T18:39:16.210Z,90.51
2018-03-19T18:41:43.835Z,90.64
2018-03-19T18:44:11.456Z,90.71
2018-03-19T18:46:39.080Z,90.53
2018-03-19T18:49:06.665Z,90.18
2018-03-19T18:51:34.733Z,90.24
2018-03-19T18:54:02.443Z,90.30
2018-03-19T18:56:30.077Z,90.50
2018-03-19T18:58:57.643Z,90.50
2018-03-19T19:01:25.231Z,90.87
2018-03-19T19:03:52.890Z,91.13
2018-03-19T19:06:20.526Z,91.08
2018-03-19T19:08:48.213Z,90.94
2018-03-19T19:11:15.844Z,90.62
2018-03-19T19:13:43.422Z,90.77
2018-03-19T19:16:10.995Z,90.44
2018-03-19T19:18:38.570Z,90.17
2018-03-19T19:21:06.130Z,90.12
2018-03-19T19:23:33.707Z,89.90
2018-03-19T19:26:01.274Z,89.53
2018-03-19T19:28:28.864Z,89.93
2018-03-19T19:30:56.487Z,90.01
2018-03-19T19:33:24.061Z,90.64
2018-03-19T19:35:51.776Z,90.85
2018-03-19T19:38:19.399Z,91.15
2018-03-19T19:40:46.966Z,91.47
2018-03-19T19:43:14.527Z,91.35
2018-03-19T19:45:42.106Z,91.30
2018-03-19T19:48:09.736Z,91.74
2018-03-19T19:50:37.312Z,91.84
2018-03-19T19:53:04.892Z,91.70
2018-03-19T19:55:32.463Z,91.92
2018-03-19T19:58:00.036Z,92.02
2018-03-19T20:00:27.681Z,92.23
2018-03-19T20:02:55.313Z,92.40
2018-03-19T20:05:22.925Z,92.61
2018-03-19T20:07:50.559Z,92.61
2018-03-19T20:10:18.168Z,92.54
2018-03-19T20:12:45.745Z,92.36
2018-03-19T20:15:13.336Z,92.49
2018-03-19T20:17:40.914Z,92.45
2018-03-19T20:20:08.480Z,92.48
2018-03-19T20:22:36.059Z,92.25
2018-03-19T20:25:03.628Z,92.32
2018-03-19T20:27:31.375Z,92.19
2018-03-19T20:29:58.919Z,92.11
2018-03-19T20:32:26.479Z,91.99
2018-03-19T20:34:54.051Z,91.83
2018-03-19T20:37:21.634Z,91.85
2018-03-19T20:39:49.218Z,91.83
2018-03-19T20:42:16.780Z,91.88
2018-03-19T20:44:44.360Z,91.49
2018-03-19T20:47:12.034Z,91.46
2018-03-19T20:49:39.676Z,91.62
2018-03-19T20:52:07.245Z,91.55
2018-03-19T20:54:34.834Z,91.56
2018-03-19T20:57:02.403Z,91.74
2018-03-19T20:59:30.043Z,91.82
2018-03-19T21:01:57.626Z,91.66
2018-03-19T21:04:25.196Z,91.59
2018-03-19T21:06:52.765Z,91.84
2018-03-19T21:09:22.305Z,91.96
2018-03-19T21:11:49.878Z,91.96
2018-03-19T21:14:17.446Z,91.63
2018-03-19T21:16:45.150Z,91.56
2018-03-19T21:19:12.776Z,91.47
2018-03-19T21:21:40.403Z,91.10
2018-03-19T21:24:08.032Z,91.24
2018-03-19T21:26:35.607Z,91.50
2018-03-19T21:29:03.195Z,91.18
2018-03-19T21:31:30.831Z,91.06
2018-03-19T21:33:58.451Z,91.39
2018-03-19T21:36:26.079Z,91.24
2018-03-19T21:38:53.643Z,91.34
2018-03-19T21:41:21.223Z,91.66
2018-03-19T21:43:48.843Z,92.04
2018-03-19T21:46:16.420Z,91.90
2018-03-19T21:48:44.042Z,91.95
2018-03-19T21:51:11.663Z,92.22
2018-03-19T21:53:39.259Z,92.59
2018-03-19T21:56:06.822Z,92.33
2018-03-19T21:58:34.433Z,92.39
2018-03-19T22:01:02.002Z,92.53
2018-03-19T22:03:29.637Z,92.64
2018-03-19T22:05:57.269Z,92.52
2018-03-19T22:08:24.887Z,92.41
2018-03-19T22:10:52.462Z,92.08
2018-03-19T22:13:20.092Z,91.84
2018-03-19T22:15:47.666Z,92.06
2018-03-19T22:18:15.235Z,92.14
2018-03-19T22:20:42.818Z,92.46
2018-03-19T22:23:10.442Z,92.65
2018-03-19T22:25:38.024Z,92.63
2018-03-19T22:28:05.656Z,92.41
2018-03-19T22:30:33.338Z,92.48
2018-03-19T22:33:00.960Z,92.69
2018-03-19T22:35:28.529Z,92.82
2018-03-19T22:37:56.163Z,92.61
2018-03-19T22:40:23.736Z,92.74
2018-03-19T22:42:51.331Z,93.01
2018-03-19T22:45:18.899Z,93.04
2018-03-19T22:47:46.586Z,92.87
2018-03-19T22:50:14.150Z,92.84
2018-03-19T22:52:41.766Z,92.80
2018-03-19T22:55:09.332Z,92.36
2018-03-19T22:57:36.895Z,92.18
2018-03-19T23:00:04.551Z,92.42
2018-03-19T23:02:32.171Z,92.19
2018-03-19T23:08:01.565Z,91.96
2018-03-19T23:10:29.191Z,91.76
2018-03-19T23:12:56.810Z,91.97
2018-03-19T23:15:24.382Z,91.92
2018-03-19T23:17:52.030Z,91.80
2018-03-19T23:20:19.609Z,91.41
2018-03-19T23:22:47.249Z,91.41
2018-03-19T23:25:14.836Z,91.44
2018-03-19T23:27:42.454Z,91.13
2018-03-19T23:30:10.052Z,91.24
2018-03-19T23:32:37.619Z,91.19
2018-03-19T23:35:05.236Z,90.85
2018-03-19T23:37:32.806Z,90.97
2018-03-19T23:40:00.394Z,91.22
2018-03-19T23:42:27.954Z,90.84
2018-03-19T23:44:55.526Z,90.97
2018-03-19T23:47:23.109Z,91.42
2018-03-19T23:49:50.753Z,91.47
2018-03-19T23:52:18.319Z,91.34
2018-03-19T23:54:45.878Z,91.49
2018-03-19T23:57:13.448Z,91.54
2018-03-19T23:59:41.032Z,91.59
